Terminal Aerodrome Forecast
Issued by NWS Twin Cities, MN

Home | Current Version | Previous Version | Graphics & Text | Print | Product List | Glossary On
Versions: 1 2 3 4 5 6 7 8 9 10 11 12 13 14 15 16
000
FTUS43 KMPX 242300
TAFEAU
TAF
KEAU 242329Z 2500/2524 19009KT P6SM OVC250
     FM250300 16007KT P6SM FEW060 PROB30 2509/2514 4SM -TSRA BR
      OVC035CB
     FM251500 18010KT P6SM SCT020 BKN040=

USA.gov is the U.S. government's official web portal to all federal, state and local government web resources and services.